createdAt,value
2023-04-10T00:00:10.004Z,34.20
2023-04-10T00:01:09.974Z,34.30
2023-04-10T00:02:10.073Z,36.00
2023-04-10T00:03:10.171Z,33.90
2023-04-10T00:04:10.120Z,33.10
2023-04-10T00:05:09.973Z,33.90
2023-04-10T00:06:09.916Z,33.90
2023-04-10T00:07:09.943Z,34.70
2023-04-10T00:08:09.912Z,34.70
2023-04-10T00:09:09.896Z,36.60
2023-04-10T00:10:09.867Z,34.40
2023-04-10T00:11:09.860Z,31.90
2023-04-10T00:12:09.872Z,36.50
2023-04-10T00:13:09.861Z,34.60
2023-04-10T00:14:09.831Z,35.10
2023-04-10T00:15:09.806Z,33.50
2023-04-10T00:16:09.851Z,34.80
2023-04-10T00:17:09.802Z,36.80
2023-04-10T00:18:09.811Z,36.00
2023-04-10T00:19:09.780Z,37.70
2023-04-10T00:20:09.761Z,34.20
2023-04-10T00:21:09.754Z,37.20
2023-04-10T00:22:09.737Z,38.30
2023-04-10T00:23:09.757Z,38.10
2023-04-10T00:24:09.722Z,38.50
2023-04-10T00:25:09.744Z,37.40
2023-04-10T00:26:09.699Z,37.70
2023-04-10T00:27:09.684Z,36.70
2023-04-10T00:28:09.709Z,38.30
2023-04-10T00:29:09.667Z,40.60
2023-04-10T00:30:09.662Z,38.30
2023-04-10T00:31:09.653Z,39.60
2023-04-10T00:32:09.674Z,36.50
2023-04-10T00:33:09.684Z,35.30
2023-04-10T00:34:09.624Z,36.00
2023-04-10T00:35:09.619Z,36.20
2023-04-10T00:36:09.608Z,34.40
2023-04-10T00:37:09.580Z,35.40
2023-04-10T00:38:09.605Z,35.60
2023-04-10T00:39:09.563Z,32.70
2023-04-10T00:40:09.545Z,34.80
2023-04-10T00:41:09.530Z,35.40
2023-04-10T00:42:09.527Z,33.20
2023-04-10T00:43:09.525Z,36.10
2023-04-10T00:44:09.500Z,36.30
2023-04-10T00:45:09.490Z,38.60
2023-04-10T00:46:09.504Z,38.30
2023-04-10T00:47:09.461Z,39.10
2023-04-10T00:48:10.473Z,38.50
2023-04-10T00:49:09.448Z,37.30
2023-04-10T00:50:09.450Z,38.00
2023-04-10T00:51:09.469Z,36.70
2023-04-10T00:52:09.406Z,37.30
2023-04-10T00:53:09.430Z,36.20
2023-04-10T00:54:09.389Z,37.10
2023-04-10T00:55:09.373Z,36.30
2023-04-10T00:56:09.378Z,38.70
2023-04-10T00:57:09.359Z,39.50
2023-04-10T00:58:09.362Z,36.40
2023-04-10T00:59:09.354Z,37.30
2023-04-10T01:00:09.332Z,40.20
2023-04-10T01:01:09.377Z,37.50
2023-04-10T01:02:09.325Z,35.70
2023-04-10T01:03:09.526Z,37.10
2023-04-10T01:04:09.340Z,36.60
2023-04-10T01:05:10.257Z,38.10
2023-04-10T01:06:09.275Z,35.80
2023-04-10T01:07:09.254Z,36.50
2023-04-10T01:08:09.252Z,36.80
2023-04-10T01:09:09.224Z,39.00
2023-04-10T01:10:09.216Z,38.80
2023-04-10T01:11:09.268Z,37.60
2023-04-10T01:12:09.196Z,36.00
2023-04-10T01:13:09.197Z,40.00
2023-04-10T01:14:09.168Z,35.70
2023-04-10T01:15:09.186Z,38.00
2023-04-10T01:16:09.147Z,38.10
2023-04-10T01:17:09.164Z,37.90
2023-04-10T01:18:09.175Z,40.20
2023-04-10T01:19:09.114Z,39.30
2023-04-10T01:20:09.115Z,41.20
2023-04-10T01:21:09.091Z,40.90
2023-04-10T01:22:09.079Z,43.30
2023-04-10T01:23:09.089Z,38.70
2023-04-10T01:24:09.049Z,41.40
2023-04-10T01:25:09.047Z,41.80
2023-04-10T01:26:09.030Z,41.40
2023-04-10T01:27:09.018Z,41.50
2023-04-10T01:28:09.022Z,40.70
2023-04-10T01:29:08.989Z,41.80
2023-04-10T01:30:08.985Z,41.40
2023-04-10T01:31:09.028Z,39.90
2023-04-10T01:32:08.969Z,41.60
2023-04-10T01:33:08.968Z,39.20
2023-04-10T01:34:08.959Z,40.50
2023-04-10T01:35:08.939Z,42.40
2023-04-10T01:36:08.977Z,41.70
2023-04-10T01:37:08.902Z,39.10
2023-04-10T01:38:08.926Z,38.30
2023-04-10T01:39:08.883Z,37.90
2023-04-10T01:40:08.874Z,38.00
2023-04-10T01:41:08.865Z,37.70
2023-04-10T01:42:08.855Z,40.90
2023-04-10T01:43:08.857Z,38.90
2023-04-10T01:44:08.825Z,36.70
2023-04-10T01:45:08.816Z,38.60
2023-04-10T01:46:08.835Z,40.80
2023-04-10T01:47:08.798Z,41.60
2023-04-10T01:48:08.783Z,38.70
2023-04-10T01:49:08.796Z,43.00
2023-04-10T01:50:08.765Z,44.50
2023-04-10T01:51:08.760Z,45.00
2023-04-10T01:52:08.749Z,42.50
2023-04-10T01:53:08.737Z,42.90
2023-04-10T01:54:08.740Z,43.60
2023-04-10T01:55:08.711Z,45.00
2023-04-10T01:56:08.702Z,47.10
2023-04-10T01:57:08.688Z,43.30
2023-04-10T01:58:08.683Z,46.50
2023-04-10T01:59:08.693Z,42.70
2023-04-10T02:00:08.704Z,43.80
2023-04-10T02:01:08.836Z,45.00
2023-04-10T02:02:09.693Z,45.10
2023-04-10T02:03:08.828Z,48.50
2023-04-10T02:04:08.692Z,48.60
2023-04-10T02:05:08.666Z,51.90
2023-04-10T02:06:08.601Z,53.00
2023-04-10T02:07:08.596Z,51.00
2023-04-10T02:08:08.568Z,56.40
2023-04-10T02:09:08.576Z,53.90
2023-04-10T02:10:08.555Z,52.10
2023-04-10T02:11:08.554Z,50.90
2023-04-10T02:12:08.524Z,52.00
2023-04-10T02:13:08.509Z,50.90
2023-04-10T02:14:08.520Z,49.50
2023-04-10T02:15:08.493Z,50.60
2023-04-10T02:16:08.537Z,50.20
2023-04-10T02:17:08.468Z,48.90
2023-04-10T02:18:08.451Z,49.10
2023-04-10T02:19:08.468Z,51.10
2023-04-10T02:20:08.470Z,47.40
2023-04-10T02:21:08.429Z,45.50
2023-04-10T02:22:08.416Z,47.40
2023-04-10T02:23:08.416Z,44.40
2023-04-10T02:24:08.408Z,47.70
2023-04-10T02:25:08.380Z,47.80
2023-04-10T02:26:08.362Z,47.30
2023-04-10T02:27:08.362Z,45.30
2023-04-10T02:28:08.351Z,47.60
2023-04-10T02:29:08.364Z,48.80
2023-04-10T02:30:08.338Z,46.80
2023-04-10T02:31:08.401Z,46.00
2023-04-10T02:32:08.352Z,47.20
2023-04-10T02:33:08.298Z,48.70
2023-04-10T02:34:08.308Z,47.40
2023-04-10T02:35:08.284Z,45.40
2023-04-10T02:36:08.314Z,47.00
2023-04-10T02:37:08.265Z,47.00
2023-04-10T02:38:08.236Z,45.40
2023-04-10T02:39:08.266Z,43.30
2023-04-10T02:40:08.223Z,49.00
2023-04-10T02:41:08.221Z,45.10
2023-04-10T02:42:08.195Z,43.10
2023-04-10T02:43:08.200Z,41.40
2023-04-10T02:44:08.192Z,42.60
2023-04-10T02:45:08.187Z,42.30
2023-04-10T02:46:08.165Z,43.10
2023-04-10T02:47:08.280Z,42.30
2023-04-10T02:48:08.150Z,42.50
2023-04-10T02:49:08.164Z,42.50
2023-04-10T02:50:08.134Z,40.70
2023-04-10T02:51:08.100Z,45.30
2023-04-10T02:52:08.094Z,41.10
2023-04-10T02:53:08.161Z,41.60
2023-04-10T02:54:08.095Z,40.50
2023-04-10T02:55:08.067Z,41.00
2023-04-10T02:56:08.075Z,40.80
2023-04-10T02:57:08.048Z,40.90
2023-04-10T02:58:08.046Z,42.80
2023-04-10T02:59:08.052Z,45.40
2023-04-10T03:00:08.032Z,43.00
2023-04-10T03:01:08.009Z,40.20
2023-04-10T03:02:08.110Z,42.00
2023-04-10T03:03:08.118Z,43.70
2023-04-10T03:04:08.146Z,43.00
2023-04-10T03:05:07.974Z,43.10
2023-04-10T03:06:08.215Z,43.40
2023-04-10T03:07:08.949Z,46.40
2023-04-10T03:08:07.947Z,44.90
2023-04-10T03:09:07.991Z,45.10
2023-04-10T03:10:07.924Z,44.40
2023-04-10T03:11:07.919Z,45.00
2023-04-10T03:12:07.896Z,43.20
2023-04-10T03:13:07.877Z,44.40
2023-04-10T03:14:07.892Z,41.70
2023-04-10T03:15:07.887Z,44.10
2023-04-10T03:16:07.898Z,45.20
2023-04-10T03:17:07.848Z,40.20
2023-04-10T03:18:07.882Z,43.50
2023-04-10T03:19:07.862Z,43.40
2023-04-10T03:20:07.811Z,42.20
2023-04-10T03:21:07.813Z,43.40
2023-04-10T03:22:07.804Z,42.00
2023-04-10T03:23:07.788Z,42.70
2023-04-10T03:24:07.815Z,43.30
2023-04-10T03:25:07.770Z,41.60
2023-04-10T03:26:07.755Z,46.80
2023-04-10T03:27:07.745Z,44.20
2023-04-10T03:28:07.771Z,44.80
2023-04-10T03:29:07.766Z,45.00
2023-04-10T03:30:07.717Z,42.90
2023-04-10T03:31:07.758Z,42.50
2023-04-10T03:32:07.700Z,44.50
2023-04-10T03:33:07.748Z,41.80
2023-04-10T03:34:07.704Z,44.10
2023-04-10T03:35:07.674Z,41.10
2023-04-10T03:36:07.694Z,43.50
2023-04-10T03:37:08.641Z,43.00
2023-04-10T03:38:07.636Z,42.90
2023-04-10T03:39:07.662Z,45.20
2023-04-10T03:40:07.617Z,44.60
2023-04-10T03:41:07.618Z,43.60
2023-04-10T03:42:07.592Z,42.40
2023-04-10T03:43:07.586Z,42.50
2023-04-10T03:44:08.429Z,40.80
2023-04-10T03:45:07.607Z,39.70
2023-04-10T03:46:07.554Z,40.20
2023-04-10T03:47:07.594Z,42.10
2023-04-10T03:48:07.544Z,36.70
2023-04-10T03:49:07.554Z,40.80
2023-04-10T03:50:07.519Z,39.10
2023-04-10T03:51:07.502Z,40.10
2023-04-10T03:52:08.497Z,41.60
2023-04-10T03:53:07.483Z,39.10
2023-04-10T03:54:07.508Z,40.00
2023-04-10T03:55:07.481Z,34.30
2023-04-10T03:56:07.464Z,38.40
2023-04-10T03:57:07.456Z,35.50
2023-04-10T03:58:07.436Z,34.10
2023-04-10T03:59:07.442Z,32.60
2023-04-10T04:00:07.431Z,34.40
2023-04-10T04:01:07.405Z,32.30
2023-04-10T04:02:07.683Z,34.60
2023-04-10T04:03:07.565Z,32.60
2023-04-10T04:04:07.594Z,32.10
2023-04-10T04:05:07.464Z,32.50
2023-04-10T04:06:07.360Z,32.30
2023-04-10T04:07:07.348Z,35.50
2023-04-10T04:08:07.346Z,32.50
2023-04-10T04:09:07.347Z,33.10
2023-04-10T04:10:07.352Z,34.40
2023-04-10T04:11:07.334Z,33.30
2023-04-10T04:12:07.293Z,32.00
2023-04-10T04:13:07.291Z,33.50
2023-04-10T04:14:07.303Z,34.00
2023-04-10T04:15:07.301Z,32.70
2023-04-10T04:16:07.326Z,32.10
2023-04-10T04:17:07.239Z,32.80
2023-04-10T04:18:07.239Z,33.60
2023-04-10T04:19:07.232Z,34.40
2023-04-10T04:20:07.214Z,34.50
2023-04-10T04:21:07.199Z,33.50
2023-04-10T04:22:07.195Z,31.70
2023-04-10T04:23:07.187Z,32.50
2023-04-10T04:24:07.185Z,33.00
2023-04-10T04:25:07.195Z,32.40
2023-04-10T04:26:07.180Z,37.80
2023-04-10T04:27:07.138Z,33.90
2023-04-10T04:28:07.126Z,32.30
2023-04-10T04:29:07.165Z,33.40
2023-04-10T04:30:07.100Z,32.30
2023-04-10T04:31:07.093Z,32.20
2023-04-10T04:32:07.113Z,32.80
2023-04-10T04:33:07.158Z,34.30
2023-04-10T04:34:07.085Z,32.80
2023-04-10T04:35:07.063Z,34.00
2023-04-10T04:36:07.065Z,34.50
2023-04-10T04:37:07.042Z,32.00
2023-04-10T04:38:07.043Z,31.40
2023-04-10T04:39:07.064Z,34.30
2023-04-10T04:40:07.012Z,32.30
2023-04-10T04:41:07.002Z,34.40
2023-04-10T04:42:06.994Z,32.90
2023-04-10T04:43:06.984Z,34.60
2023-04-10T04:44:06.975Z,32.70
2023-04-10T04:45:06.981Z,32.20
2023-04-10T04:46:06.961Z,37.60
2023-04-10T04:47:06.991Z,34.50
2023-04-10T04:48:06.951Z,36.40
2023-04-10T04:49:06.962Z,35.70
2023-04-10T04:50:06.910Z,35.60
2023-04-10T04:51:06.894Z,34.00
2023-04-10T04:52:06.886Z,36.00
2023-04-10T04:53:08.025Z,36.80
2023-04-10T04:54:07.907Z,36.50
2023-04-10T04:55:06.863Z,36.20
2023-04-10T04:56:06.844Z,34.00
2023-04-10T04:57:18.327Z,37.70
2023-04-10T04:58:06.834Z,35.10
2023-04-10T04:59:06.824Z,36.20
2023-04-10T05:00:06.814Z,36.30
2023-04-10T05:01:06.816Z,37.20
2023-04-10T05:02:06.873Z,33.70
2023-04-10T05:03:06.948Z,37.00
2023-04-10T05:04:06.865Z,41.10
2023-04-10T05:05:06.848Z,38.40
2023-04-10T05:06:06.739Z,36.50
2023-04-10T05:07:06.738Z,37.00
2023-04-10T05:08:06.722Z,35.10
2023-04-10T05:09:06.713Z,36.70
2023-04-10T05:10:06.751Z,37.70
2023-04-10T05:11:06.680Z,35.10
2023-04-10T05:12:06.688Z,36.10
2023-04-10T05:13:06.662Z,37.80
2023-04-10T05:14:06.652Z,38.20
2023-04-10T05:15:06.682Z,38.10
2023-04-10T05:16:06.684Z,41.10
2023-04-10T05:17:06.624Z,37.90
2023-04-10T05:18:06.656Z,37.30
2023-04-10T05:19:06.587Z,38.20
2023-04-10T05:20:06.616Z,38.50
2023-04-10T05:21:06.579Z,37.70
2023-04-10T05:22:06.567Z,38.90
2023-04-10T05:23:06.567Z,41.10
2023-04-10T05:24:06.560Z,40.60
2023-04-10T05:25:06.618Z,39.40
2023-04-10T05:26:06.536Z,41.00
2023-04-10T05:27:06.528Z,41.80
2023-04-10T05:28:06.498Z,37.70
2023-04-10T05:29:06.506Z,42.90
2023-04-10T05:30:07.483Z,41.30
2023-04-10T05:31:06.519Z,40.00
2023-04-10T05:32:06.464Z,41.70
2023-04-10T05:33:06.445Z,38.80
2023-04-10T05:34:06.461Z,38.10
2023-04-10T05:35:06.442Z,36.10
2023-04-10T05:36:06.449Z,39.00
2023-04-10T05:37:06.411Z,38.80
2023-04-10T05:38:06.398Z,37.70
2023-04-10T05:39:06.469Z,37.10
2023-04-10T05:40:06.400Z,38.20
2023-04-10T05:41:06.367Z,38.10
2023-04-10T05:42:06.419Z,39.70
2023-04-10T05:43:06.349Z,41.00
2023-04-10T05:44:06.333Z,41.10
2023-04-10T05:45:06.349Z,40.60
2023-04-10T05:46:06.318Z,39.70
2023-04-10T05:47:06.317Z,42.10
2023-04-10T05:48:06.329Z,41.20
2023-04-10T05:49:06.291Z,39.70
2023-04-10T05:50:06.295Z,39.80
2023-04-10T05:51:06.289Z,41.10
2023-04-10T05:52:06.263Z,41.70
2023-04-10T05:53:06.249Z,39.30
2023-04-10T05:54:06.237Z,38.10
2023-04-10T05:55:06.232Z,36.20
2023-04-10T05:56:06.209Z,37.50
2023-04-10T05:57:06.195Z,38.60
2023-04-10T05:58:06.189Z,37.20
2023-04-10T05:59:06.168Z,37.60
2023-04-10T06:00:06.193Z,37.30
2023-04-10T06:01:06.158Z,34.90
2023-04-10T06:02:06.164Z,39.80
2023-04-10T06:03:06.336Z,36.00
2023-04-10T06:04:06.394Z,35.70
2023-04-10T06:05:06.269Z,37.50
2023-04-10T06:06:06.118Z,39.80
2023-04-10T06:07:06.119Z,38.50
2023-04-10T06:08:06.071Z,36.00
2023-04-10T06:09:06.085Z,37.50
2023-04-10T06:10:06.070Z,37.70
2023-04-10T06:11:06.076Z,36.40
2023-04-10T06:12:06.032Z,35.90
2023-04-10T06:13:06.010Z,36.50
2023-04-10T06:14:06.027Z,34.10
2023-04-10T06:15:06.018Z,38.40
2023-04-10T06:16:06.050Z,35.20
2023-04-10T06:17:05.981Z,35.30
2023-04-10T06:18:05.972Z,34.70
2023-04-10T06:19:05.954Z,36.20
2023-04-10T06:20:05.955Z,34.50
2023-04-10T06:21:05.924Z,34.10
2023-04-10T06:22:05.933Z,34.70
2023-04-10T06:23:05.910Z,31.20
2023-04-10T06:24:06.892Z,29.90
2023-04-10T06:25:05.930Z,27.80
2023-04-10T06:26:05.880Z,29.70
2023-04-10T06:27:05.861Z,27.80
2023-04-10T06:28:05.846Z,27.50
2023-04-10T06:29:05.832Z,25.70
2023-04-10T06:30:05.843Z,24.70
2023-04-10T06:31:05.844Z,25.70
2023-04-10T06:32:05.803Z,24.20
2023-04-10T06:33:05.903Z,25.10
2023-04-10T06:34:05.787Z,23.80
2023-04-10T06:35:05.795Z,23.40
2023-04-10T06:36:05.800Z,24.50
2023-04-10T06:37:06.090Z,25.40
2023-04-10T06:38:05.839Z,24.00
2023-04-10T06:39:05.733Z,25.10
2023-04-10T06:40:05.747Z,24.00
2023-04-10T06:41:05.716Z,24.40
2023-04-10T06:42:05.700Z,24.40
2023-04-10T06:43:05.692Z,24.00
2023-04-10T06:44:05.687Z,23.70
2023-04-10T06:45:05.686Z,25.30
2023-04-10T06:46:05.657Z,20.70
2023-04-10T06:47:05.741Z,24.70
2023-04-10T06:48:05.676Z,27.10
2023-04-10T06:49:05.640Z,24.70
2023-04-10T06:50:06.641Z,25.10
2023-04-10T06:51:05.613Z,22.00
2023-04-10T06:52:05.621Z,24.30
2023-04-10T06:53:05.586Z,24.70
2023-04-10T06:54:05.595Z,24.70
2023-04-10T06:55:05.609Z,24.20
2023-04-10T06:56:05.560Z,22.70
2023-04-10T06:57:05.574Z,21.50
2023-04-10T06:58:05.560Z,22.50
2023-04-10T06:59:05.565Z,20.30
2023-04-10T07:00:05.544Z,21.00
2023-04-10T07:01:05.550Z,20.10
2023-04-10T07:02:05.524Z,21.60
2023-04-10T07:03:05.541Z,21.20
2023-04-10T07:04:05.518Z,23.20
2023-04-10T07:05:05.487Z,25.10
2023-04-10T07:06:05.468Z,22.60
2023-04-10T07:07:05.468Z,23.20
2023-04-10T07:08:05.440Z,21.00
2023-04-10T07:09:05.433Z,20.90
2023-04-10T07:10:05.495Z,23.40
2023-04-10T07:11:05.474Z,21.10
2023-04-10T07:12:05.438Z,19.10
2023-04-10T07:13:05.414Z,20.10
2023-04-10T07:14:05.392Z,20.90
2023-04-10T07:15:05.395Z,22.20
2023-04-10T07:16:05.409Z,24.00
2023-04-10T07:17:05.355Z,21.00
2023-04-10T07:18:05.394Z,19.20
2023-04-10T07:19:05.366Z,20.60
2023-04-10T07:20:05.325Z,21.50
2023-04-10T07:21:06.334Z,21.20
2023-04-10T07:22:05.317Z,20.80
2023-04-10T07:23:05.300Z,19.50
2023-04-10T07:24:05.288Z,20.70
2023-04-10T07:25:05.281Z,20.10
2023-04-10T07:26:05.302Z,21.90
2023-04-10T07:27:05.278Z,20.30
2023-04-10T07:28:05.268Z,21.70
2023-04-10T07:29:05.238Z,21.10
2023-04-10T07:30:05.241Z,21.90
2023-04-10T07:31:05.240Z,23.50
2023-04-10T07:32:05.415Z,20.10
2023-04-10T07:33:05.301Z,22.00
2023-04-10T07:34:05.184Z,20.20
2023-04-10T07:35:05.228Z,23.20
2023-04-10T07:36:05.287Z,19.10
2023-04-10T07:37:05.161Z,20.50
2023-04-10T07:38:05.199Z,19.20
2023-04-10T07:39:05.142Z,19.70
2023-04-10T07:40:05.120Z,23.60
2023-04-10T07:41:05.144Z,19.80
2023-04-10T07:42:05.107Z,19.80
2023-04-10T07:43:05.119Z,19.80
2023-04-10T07:44:05.087Z,20.20
2023-04-10T07:45:05.110Z,19.10
2023-04-10T07:46:05.125Z,20.10
2023-04-10T07:47:05.068Z,21.40
2023-04-10T07:48:05.145Z,21.40
2023-04-10T07:49:06.132Z,18.70
2023-04-10T07:50:05.024Z,20.20
2023-04-10T07:51:05.042Z,18.60
2023-04-10T07:52:05.007Z,20.60
2023-04-10T07:53:04.998Z,18.30
2023-04-10T07:54:04.997Z,21.00
2023-04-10T07:55:05.027Z,19.90
2023-04-10T07:56:04.969Z,19.30
2023-04-10T07:57:04.957Z,19.90
2023-04-10T07:58:04.983Z,18.50
2023-04-10T07:59:04.932Z,17.50
2023-04-10T08:00:04.947Z,20.00
2023-04-10T08:01:04.940Z,19.00
2023-04-10T08:02:04.987Z,19.70
2023-04-10T08:03:05.218Z,19.60
2023-04-10T08:04:06.119Z,18.50
2023-04-10T08:05:05.987Z,18.00
2023-04-10T08:06:04.884Z,17.70
2023-04-10T08:07:04.858Z,17.50
2023-04-10T08:08:04.862Z,21.90
2023-04-10T08:09:04.839Z,17.90
2023-04-10T08:10:04.864Z,17.20
2023-04-10T08:11:04.844Z,17.60
2023-04-10T08:12:04.837Z,18.50
2023-04-10T08:13:04.798Z,17.00
2023-04-10T08:14:04.819Z,17.80
2023-04-10T08:15:04.828Z,19.00
2023-04-10T08:16:04.832Z,17.80
2023-04-10T08:17:04.874Z,15.80
2023-04-10T08:18:04.789Z,17.50
2023-04-10T08:19:04.767Z,17.00
2023-04-10T08:20:04.781Z,17.70
2023-04-10T08:21:04.732Z,16.10
2023-04-10T08:22:04.709Z,15.90
2023-04-10T08:23:19.281Z,17.80
2023-04-10T08:24:06.729Z,16.20
2023-04-10T08:25:04.685Z,15.70
2023-04-10T08:26:04.689Z,17.80
2023-04-10T08:27:04.646Z,18.00
2023-04-10T08:28:04.658Z,17.90
2023-04-10T08:29:04.674Z,16.60
2023-04-10T08:30:04.630Z,17.40
2023-04-10T08:31:04.826Z,18.60
2023-04-10T08:32:04.621Z,15.40
2023-04-10T08:33:04.688Z,16.80
2023-04-10T08:34:04.590Z,17.20
2023-04-10T08:35:04.606Z,16.30
2023-04-10T08:36:04.569Z,16.40
2023-04-10T08:37:04.616Z,15.90
2023-04-10T08:38:13.707Z,16.40
2023-04-10T08:39:06.543Z,17.40
2023-04-10T08:40:04.541Z,17.30
2023-04-10T08:41:04.553Z,17.30
2023-04-10T08:42:04.539Z,16.80
2023-04-10T08:43:04.502Z,17.00
2023-04-10T08:44:04.481Z,15.20
2023-04-10T08:45:04.486Z,16.20
2023-04-10T08:46:04.520Z,15.20
2023-04-10T08:47:04.465Z,16.60
2023-04-10T08:48:04.476Z,18.20
2023-04-10T08:49:04.494Z,16.60
2023-04-10T08:50:04.668Z,15.20
2023-04-10T08:51:04.971Z,16.40
2023-04-10T08:52:04.684Z,20.20
2023-04-10T08:53:06.101Z,15.40
2023-04-10T08:54:05.449Z,16.30
2023-04-10T08:55:05.662Z,15.10
2023-04-10T08:56:08.581Z,18.40
2023-04-10T08:57:08.110Z,16.00
2023-04-10T08:58:05.007Z,17.30
2023-04-10T08:59:05.281Z,16.10
2023-04-10T09:01:06.724Z,15.20
2023-04-10T09:02:05.371Z,16.10
2023-04-10T09:03:04.612Z,16.60
2023-04-10T09:04:05.640Z,14.60
2023-04-10T09:05:04.565Z,16.10
2023-04-10T09:06:04.982Z,16.30
2023-04-10T09:07:04.568Z,16.50
2023-04-10T09:08:04.768Z,15.80
2023-04-10T09:09:04.940Z,15.70
2023-04-10T09:10:05.221Z,15.60
2023-04-10T09:11:04.944Z,16.70
2023-04-10T09:12:05.470Z,15.80
2023-04-10T09:13:05.364Z,15.60
2023-04-10T09:14:05.431Z,15.80
2023-04-10T09:15:05.101Z,15.90
2023-04-10T09:16:04.924Z,16.50
2023-04-10T09:17:04.515Z,15.70
2023-04-10T09:18:06.155Z,14.00
2023-04-10T09:19:07.788Z,13.80
2023-04-10T09:20:04.377Z,13.80
2023-04-10T09:21:04.749Z,14.10
2023-04-10T09:22:05.168Z,14.00
2023-04-10T09:23:05.811Z,14.40
2023-04-10T09:24:05.941Z,14.80
2023-04-10T09:25:05.240Z,14.40
2023-04-10T09:26:05.126Z,14.50
2023-04-10T09:27:06.580Z,14.80
2023-04-10T09:28:05.374Z,15.00
2023-04-10T09:29:04.331Z,13.90
2023-04-10T09:30:06.060Z,14.90
2023-04-10T09:31:04.347Z,13.80
2023-04-10T09:32:04.276Z,13.90
2023-04-10T09:33:06.338Z,13.60
2023-04-10T09:34:05.071Z,15.90
2023-04-10T09:35:04.255Z,14.50
2023-04-10T09:36:06.295Z,14.50
2023-04-10T09:37:05.230Z,15.00
2023-04-10T09:38:06.569Z,14.50
2023-04-10T09:39:04.935Z,15.10
2023-04-10T09:40:05.915Z,14.20
2023-04-10T09:41:10.788Z,13.70
2023-04-10T09:42:06.782Z,15.30
2023-04-10T09:43:08.489Z,14.80
2023-04-10T09:44:04.728Z,13.60
2023-04-10T09:45:04.736Z,14.40
2023-04-10T09:46:05.087Z,14.50
2023-04-10T09:47:04.991Z,15.60
2023-04-10T09:48:04.247Z,14.90
2023-04-10T09:49:04.767Z,13.40
2023-04-10T09:50:04.767Z,13.40
2023-04-10T09:51:05.363Z,14.60
2023-04-10T09:52:05.747Z,13.10
2023-04-10T09:53:05.807Z,15.50
2023-04-10T09:54:04.189Z,14.00
2023-04-10T09:55:05.143Z,13.70
2023-04-10T09:56:05.248Z,14.40
2023-04-10T09:57:05.802Z,15.00
2023-04-10T09:58:04.201Z,14.80
2023-04-10T09:59:06.334Z,14.80
2023-04-10T10:00:04.316Z,14.90
2023-04-10T10:01:04.064Z,13.60
2023-04-10T10:02:05.051Z,14.80
2023-04-10T10:03:06.539Z,14.60
2023-04-10T10:04:05.880Z,14.20
2023-04-10T10:05:05.031Z,13.80
2023-04-10T10:06:08.644Z,14.80
2023-04-10T10:07:18.717Z,15.10
2023-04-10T10:08:04.687Z,14.00
2023-04-10T10:09:07.651Z,13.20
2023-04-10T10:10:05.356Z,14.70
2023-04-10T10:11:03.976Z,14.40
2023-04-10T10:12:04.714Z,12.80
2023-04-10T10:13:04.756Z,14.40
2023-04-10T10:14:04.188Z,14.20
2023-04-10T10:15:04.607Z,13.80
2023-04-10T10:16:04.880Z,13.50
2023-04-10T10:17:03.973Z,14.00
2023-04-10T10:18:05.399Z,13.60
2023-04-10T10:19:03.862Z,15.80
2023-04-10T10:20:05.784Z,14.00
2023-04-10T10:21:04.890Z,13.00
2023-04-10T10:22:04.284Z,12.70
2023-04-10T10:23:06.841Z,12.90
2023-04-10T10:24:07.512Z,12.30
2023-04-10T10:25:04.910Z,12.30
2023-04-10T10:26:04.536Z,14.40
2023-04-10T10:27:07.833Z,12.20
2023-04-10T10:28:06.270Z,13.20
2023-04-10T10:29:04.790Z,13.10
2023-04-10T10:30:15.927Z,14.50
2023-04-10T10:31:07.253Z,13.00
2023-04-10T10:32:04.332Z,15.10
2023-04-10T10:33:03.788Z,12.70
2023-04-10T10:34:03.846Z,13.40
2023-04-10T10:35:04.521Z,13.90
2023-04-10T10:36:05.553Z,15.00
2023-04-10T10:37:04.801Z,13.90
2023-04-10T10:38:05.066Z,13.10
2023-04-10T10:39:04.823Z,12.70
2023-04-10T10:40:05.481Z,12.90
2023-04-10T10:41:03.652Z,14.20
2023-04-10T10:42:04.774Z,14.00
2023-04-10T10:43:03.656Z,14.60
2023-04-10T10:44:04.329Z,13.80
2023-04-10T10:45:03.576Z,12.50
2023-04-10T10:46:04.433Z,15.50
2023-04-10T10:47:06.667Z,13.60
2023-04-10T10:48:04.236Z,14.00
2023-04-10T10:49:04.241Z,14.00
2023-04-10T10:50:03.578Z,13.10
2023-04-10T10:51:03.600Z,12.60
2023-04-10T10:52:05.517Z,14.70
2023-04-10T10:53:03.498Z,13.00
2023-04-10T10:54:05.250Z,12.70
2023-04-10T10:55:04.305Z,13.90
2023-04-10T10:56:05.106Z,13.00
2023-04-10T10:57:03.571Z,13.40
2023-04-10T10:58:29.606Z,12.30
2023-04-10T10:59:03.156Z,12.60
2023-04-10T11:00:03.144Z,12.90
2023-04-10T11:01:03.162Z,12.90
2023-04-10T11:02:03.296Z,12.10
2023-04-10T11:03:03.272Z,12.30
2023-04-10T11:04:03.255Z,12.50
2023-04-10T11:05:03.110Z,12.60
2023-04-10T11:06:03.110Z,11.90
2023-04-10T11:07:03.115Z,12.40
2023-04-10T11:08:03.075Z,12.90
2023-04-10T11:09:03.053Z,11.50
2023-04-10T11:10:03.059Z,11.30
2023-04-10T11:11:03.064Z,10.40
2023-04-10T11:12:03.070Z,11.20
2023-04-10T11:13:03.036Z,11.60
2023-04-10T11:14:03.004Z,10.40
2023-04-10T11:15:03.044Z,10.50
2023-04-10T11:16:03.086Z,9.00
2023-04-10T11:17:03.169Z,10.20
2023-04-10T11:18:03.010Z,10.30
2023-04-10T11:19:13.880Z,10.40
2023-04-10T11:20:04.949Z,10.60
2023-04-10T11:21:02.940Z,10.30
2023-04-10T11:22:02.949Z,9.70
2023-04-10T11:23:02.926Z,9.20
2023-04-10T11:24:02.918Z,8.90
2023-04-10T11:25:02.990Z,9.20
2023-04-10T11:26:02.901Z,9.10
2023-04-10T11:27:03.013Z,7.80
2023-04-10T11:28:02.884Z,10.40
2023-04-10T11:29:02.859Z,8.30
2023-04-10T11:30:02.839Z,7.60
2023-04-10T11:31:02.848Z,9.70
2023-04-10T11:32:02.936Z,8.70
2023-04-10T11:33:03.068Z,9.00
2023-04-10T11:34:02.836Z,7.30
2023-04-10T11:35:04.843Z,7.10
2023-04-10T11:36:02.865Z,9.20
2023-04-10T11:37:02.813Z,8.90
2023-04-10T11:38:02.796Z,8.70
2023-04-10T11:39:02.779Z,8.50
2023-04-10T11:40:02.801Z,9.20
2023-04-10T11:41:02.955Z,7.30
2023-04-10T11:42:02.817Z,8.90
2023-04-10T11:43:02.793Z,7.70
2023-04-10T11:44:02.815Z,8.50
2023-04-10T11:45:03.420Z,7.40
2023-04-10T11:46:02.831Z,9.00
2023-04-10T11:47:02.805Z,8.10
2023-04-10T11:48:02.694Z,7.90
2023-04-10T11:49:02.669Z,7.10
2023-04-10T11:50:02.654Z,7.00
2023-04-10T11:51:02.651Z,7.20
2023-04-10T11:52:02.667Z,6.80
2023-04-10T11:53:02.621Z,7.90
2023-04-10T11:54:02.614Z,6.70
2023-04-10T11:55:02.605Z,7.70
2023-04-10T11:56:02.597Z,7.90
2023-04-10T11:57:02.598Z,8.00
2023-04-10T11:58:02.579Z,7.70
2023-04-10T11:59:02.583Z,7.70
2023-04-10T12:00:02.561Z,7.90
2023-04-10T12:01:02.569Z,7.70
2023-04-10T12:02:02.645Z,7.40
2023-04-10T12:03:02.802Z,11.70
2023-04-10T12:04:02.619Z,6.70
2023-04-10T12:05:02.575Z,6.60
2023-04-10T12:06:02.497Z,5.80
2023-04-10T12:07:02.557Z,6.30
2023-04-10T12:08:02.480Z,8.10
2023-04-10T12:09:02.461Z,6.90
2023-04-10T12:10:02.462Z,7.20
2023-04-10T12:11:02.450Z,7.60
2023-04-10T12:12:02.447Z,8.50
2023-04-10T12:13:02.429Z,6.30
2023-04-10T12:14:02.417Z,7.00
2023-04-10T12:15:02.437Z,9.30
2023-04-10T12:16:02.488Z,6.70
2023-04-10T12:17:02.449Z,6.50
2023-04-10T12:18:02.404Z,6.80
2023-04-10T12:19:02.353Z,6.10
2023-04-10T12:20:03.361Z,6.90
2023-04-10T12:21:02.344Z,6.00
2023-04-10T12:22:02.344Z,6.60
2023-04-10T12:23:02.325Z,7.40
2023-04-10T12:24:02.307Z,6.00
2023-04-10T12:25:02.290Z,6.00
2023-04-10T12:26:02.295Z,5.80
2023-04-10T12:27:02.296Z,6.30
2023-04-10T12:28:02.263Z,6.60
2023-04-10T12:29:02.252Z,5.40
2023-04-10T12:30:02.242Z,5.10
2023-04-10T12:31:02.260Z,5.40
2023-04-10T12:32:02.253Z,5.90
2023-04-10T12:33:02.289Z,6.10
2023-04-10T12:34:02.284Z,5.70
2023-04-10T12:35:02.239Z,5.90
2023-04-10T12:36:02.236Z,6.50
2023-04-10T12:37:02.205Z,5.30
2023-04-10T12:38:02.197Z,8.00
2023-04-10T12:39:02.185Z,4.70
2023-04-10T12:40:03.154Z,6.70
2023-04-10T12:41:02.176Z,5.40
2023-04-10T12:42:02.153Z,5.50
2023-04-10T12:43:02.133Z,6.10
2023-04-10T12:44:02.139Z,6.70
2023-04-10T12:45:02.133Z,5.70
2023-04-10T12:46:02.163Z,5.60
2023-04-10T12:47:02.083Z,5.10
2023-04-10T12:48:02.091Z,5.10
2023-04-10T12:49:02.104Z,4.80
2023-04-10T12:50:02.119Z,5.00
2023-04-10T12:51:02.053Z,5.40
2023-04-10T12:52:02.067Z,6.50
2023-04-10T12:53:02.037Z,9.90
2023-04-10T12:54:02.031Z,5.80
2023-04-10T12:55:02.896Z,4.50
2023-04-10T12:56:02.010Z,5.90